createdAt,value
2022-12-31T00:00:09.316Z,1.13
2022-12-31T00:02:36.310Z,1.20
2022-12-31T00:05:04.385Z,1.00
2022-12-31T00:09:58.069Z,1.35
2022-12-31T00:12:25.295Z,1.58
2022-12-31T00:14:52.093Z,1.30
2022-12-31T00:17:19.153Z,1.40
2022-12-31T00:19:45.957Z,1.73
2022-12-31T00:22:12.765Z,1.70
2022-12-31T00:24:39.571Z,1.50
2022-12-31T00:27:06.329Z,2.00
2022-12-31T00:29:33.270Z,1.85
2022-12-31T00:32:00.121Z,1.85
2022-12-31T00:34:27.512Z,2.35
2022-12-31T00:36:54.368Z,2.22
2022-12-31T00:39:21.139Z,2.58
2022-12-31T00:41:47.923Z,2.90
2022-12-31T00:44:14.914Z,2.78
2022-12-31T00:49:09.326Z,2.60
2022-12-31T00:51:36.236Z,2.45
2022-12-31T00:54:03.206Z,2.70
2022-12-31T00:56:31.551Z,2.50
2022-12-31T00:59:00.207Z,2.42
2022-12-31T01:01:31.687Z,1.90
2022-12-31T01:04:06.346Z,1.80
2022-12-31T01:06:33.684Z,1.35
2022-12-31T01:09:00.887Z,1.30
2022-12-31T01:11:30.892Z,1.35
2022-12-31T01:14:20.641Z,1.10
2022-12-31T01:16:53.691Z,1.15
2022-12-31T01:19:28.037Z,1.38
2022-12-31T01:21:55.986Z,1.10
2022-12-31T01:24:23.271Z,1.10
2022-12-31T01:26:51.252Z,1.38
2022-12-31T01:29:18.451Z,1.17
2022-12-31T01:31:45.380Z,1.40
2022-12-31T01:34:12.257Z,1.25
2022-12-31T01:36:39.636Z,1.17
2022-12-31T01:39:08.565Z,1.30
2022-12-31T01:41:40.082Z,1.13
2022-12-31T01:44:13.026Z,1.63
2022-12-31T01:46:56.189Z,1.00
2022-12-31T01:49:36.028Z,1.10
2022-12-31T01:52:27.300Z,1.20
2022-12-31T01:55:14.800Z,1.23
2022-12-31T01:57:44.075Z,1.00
2022-12-31T02:00:11.553Z,1.25
2022-12-31T02:02:38.857Z,0.90
2022-12-31T02:05:29.272Z,1.00
2022-12-31T02:07:57.567Z,1.60
2022-12-31T02:10:24.556Z,1.30
2022-12-31T02:12:52.609Z,1.23
2022-12-31T02:15:27.997Z,1.80
2022-12-31T02:18:29.397Z,1.58
2022-12-31T02:21:16.112Z,1.33
2022-12-31T02:23:55.472Z,1.30
2022-12-31T02:26:57.090Z,1.50
2022-12-31T02:30:08.677Z,1.23
2022-12-31T02:33:03.500Z,1.17
2022-12-31T02:35:49.001Z,1.00
2022-12-31T02:38:33.538Z,1.20
2022-12-31T02:41:00.786Z,1.10
2022-12-31T02:43:28.044Z,0.85
2022-12-31T02:46:52.923Z,0.93
2022-12-31T02:50:09.290Z,0.98
2022-12-31T02:53:39.480Z,0.80
2022-12-31T02:56:24.197Z,0.60
2022-12-31T02:59:24.626Z,0.70
2022-12-31T03:02:14.911Z,0.75
2022-12-31T03:04:56.323Z,1.08
2022-12-31T03:07:30.393Z,1.15
2022-12-31T03:09:58.026Z,0.82
2022-12-31T03:12:46.960Z,0.98
2022-12-31T03:15:30.377Z,0.93
2022-12-31T03:18:11.673Z,0.80
2022-12-31T03:21:09.609Z,1.00
2022-12-31T03:24:04.981Z,0.90
2022-12-31T03:26:31.787Z,0.85
2022-12-31T03:28:58.528Z,0.70
2022-12-31T03:31:25.353Z,0.95
2022-12-31T03:33:52.274Z,0.80
2022-12-31T03:36:19.057Z,0.93
2022-12-31T03:38:49.827Z,0.70
2022-12-31T03:41:19.533Z,0.95
2022-12-31T03:43:46.334Z,0.88
2022-12-31T03:46:13.197Z,0.70
2022-12-31T03:48:40.082Z,0.93
2022-12-31T03:51:06.889Z,1.00
2022-12-31T03:53:35.528Z,0.73
2022-12-31T03:56:02.316Z,0.82
2022-12-31T03:58:29.381Z,0.73
2022-12-31T04:00:56.347Z,1.10
2022-12-31T04:03:23.331Z,1.08
2022-12-31T04:05:56.304Z,0.90
2022-12-31T04:08:23.938Z,0.80
2022-12-31T04:10:50.915Z,0.77
2022-12-31T04:13:17.831Z,1.02
2022-12-31T04:15:44.748Z,0.68
2022-12-31T04:18:11.575Z,0.73
2022-12-31T04:20:38.397Z,0.77
2022-12-31T04:23:05.227Z,0.77
2022-12-31T04:25:32.325Z,0.77
2022-12-31T04:27:59.171Z,0.70
2022-12-31T04:30:25.944Z,0.70
2022-12-31T04:32:52.747Z,0.90
2022-12-31T04:35:19.699Z,0.70
2022-12-31T04:37:46.534Z,1.02
2022-12-31T04:40:13.516Z,0.90
2022-12-31T04:42:40.367Z,0.90
2022-12-31T04:45:08.349Z,1.38
2022-12-31T04:47:35.325Z,1.38
2022-12-31T04:50:04.319Z,1.23
2022-12-31T04:52:34.532Z,1.00
2022-12-31T04:55:04.580Z,1.13
2022-12-31T04:57:31.449Z,1.63
2022-12-31T04:59:58.269Z,1.40
2022-12-31T05:02:25.231Z,1.50
2022-12-31T05:04:52.158Z,1.70
2022-12-31T05:07:18.971Z,1.80
2022-12-31T05:09:45.765Z,1.70
2022-12-31T05:12:12.579Z,1.88
2022-12-31T05:14:39.380Z,1.83
2022-12-31T05:17:06.119Z,1.95
2022-12-31T05:19:32.879Z,2.20
2022-12-31T05:22:18.209Z,2.40
2022-12-31T05:24:44.996Z,2.70
2022-12-31T05:27:11.795Z,2.58
2022-12-31T05:29:38.537Z,2.75
2022-12-31T05:32:05.444Z,2.63
2022-12-31T05:34:32.277Z,2.78
2022-12-31T05:36:59.048Z,2.58
2022-12-31T05:39:25.797Z,2.53
2022-12-31T05:41:52.599Z,2.03
2022-12-31T05:44:20.312Z,2.40
2022-12-31T05:46:47.270Z,2.00
2022-12-31T05:49:14.239Z,2.20
2022-12-31T05:51:41.142Z,1.90
2022-12-31T05:54:07.914Z,1.80
2022-12-31T05:56:36.941Z,1.67
2022-12-31T05:59:03.978Z,1.60
2022-12-31T06:01:30.816Z,1.52
2022-12-31T06:03:57.668Z,1.40
2022-12-31T06:06:24.472Z,1.38
2022-12-31T06:08:52.548Z,1.42
2022-12-31T06:11:19.321Z,1.15
2022-12-31T06:13:46.100Z,1.30
2022-12-31T06:16:13.754Z,1.30
2022-12-31T06:18:41.097Z,1.10
2022-12-31T06:21:07.948Z,0.85
2022-12-31T06:23:34.949Z,0.90
2022-12-31T06:26:04.128Z,0.90
2022-12-31T06:28:31.247Z,1.15
2022-12-31T06:31:03.887Z,1.00
2022-12-31T06:33:31.200Z,1.23
2022-12-31T06:36:01.000Z,1.40
2022-12-31T06:38:31.301Z,1.73
2022-12-31T06:40:58.201Z,1.98
2022-12-31T06:43:25.127Z,2.58
2022-12-31T06:45:51.869Z,3.28
2022-12-31T06:48:18.659Z,3.20
2022-12-31T06:50:45.499Z,3.47
2022-12-31T06:53:12.311Z,3.63
2022-12-31T06:55:39.560Z,3.17
2022-12-31T06:58:06.678Z,3.72
2022-12-31T07:00:33.879Z,3.50
2022-12-31T07:03:14.946Z,2.92
2022-12-31T07:05:52.345Z,2.70
2022-12-31T07:08:47.649Z,1.83
2022-12-31T07:11:38.512Z,1.52
2022-12-31T07:14:46.389Z,0.90
2022-12-31T07:17:26.571Z,0.85
2022-12-31T07:20:10.126Z,0.68
2022-12-31T07:22:37.825Z,0.60
2022-12-31T07:25:07.372Z,0.50
2022-12-31T07:27:58.869Z,0.40
2022-12-31T07:31:01.557Z,0.20
2022-12-31T07:33:49.537Z,0.40
2022-12-31T07:37:20.747Z,0.10
2022-12-31T07:40:18.351Z,0.30
2022-12-31T07:43:18.389Z,0.38
2022-12-31T07:46:15.366Z,0.20
2022-12-31T07:48:42.593Z,0.20
2022-12-31T07:51:10.941Z,0.47
2022-12-31T07:53:39.750Z,0.30
2022-12-31T07:56:09.699Z,0.35
2022-12-31T07:59:22.439Z,0.20
2022-12-31T08:02:39.916Z,0.30
2022-12-31T08:05:39.095Z,0.40
2022-12-31T08:08:36.310Z,0.50
2022-12-31T08:11:17.150Z,0.30
2022-12-31T08:13:44.235Z,0.30
2022-12-31T08:16:13.934Z,0.35
2022-12-31T08:18:42.248Z,0.43
2022-12-31T08:21:51.591Z,0.80
2022-12-31T08:25:12.381Z,0.50
2022-12-31T08:28:13.030Z,0.55
2022-12-31T08:31:13.856Z,0.40
2022-12-31T08:34:07.484Z,0.30
2022-12-31T08:37:23.246Z,0.40
2022-12-31T08:40:20.343Z,0.50
2022-12-31T08:43:20.477Z,0.60
2022-12-31T08:45:53.528Z,0.68
2022-12-31T08:48:41.652Z,0.40
2022-12-31T08:51:28.948Z,0.73
2022-12-31T08:53:56.375Z,0.68
2022-12-31T08:56:53.547Z,0.55
2022-12-31T08:59:35.633Z,0.38
2022-12-31T09:02:55.970Z,0.50
2022-12-31T09:05:25.444Z,0.60
2022-12-31T09:08:16.580Z,0.50
2022-12-31T09:11:07.594Z,0.55
2022-12-31T09:14:01.990Z,0.40
2022-12-31T09:16:53.846Z,0.63
2022-12-31T09:19:20.753Z,0.50
2022-12-31T09:21:48.017Z,0.77
2022-12-31T09:24:16.738Z,0.65
2022-12-31T09:26:59.080Z,0.70
2022-12-31T09:29:50.165Z,0.65
2022-12-31T09:32:48.092Z,1.00
2022-12-31T09:35:37.823Z,0.77
2022-12-31T09:38:13.514Z,0.80
2022-12-31T09:40:45.740Z,0.80
2022-12-31T09:43:54.584Z,0.95
2022-12-31T09:47:10.607Z,0.70
2022-12-31T09:49:56.186Z,1.02
2022-12-31T09:53:02.756Z,0.70
2022-12-31T09:56:11.529Z,0.77
2022-12-31T09:58:58.600Z,1.35
2022-12-31T10:01:57.747Z,0.50
2022-12-31T10:04:43.257Z,0.63
2022-12-31T10:07:24.228Z,0.50
2022-12-31T10:10:22.539Z,0.70
2022-12-31T10:13:21.639Z,0.80
2022-12-31T10:16:13.024Z,1.15
2022-12-31T10:19:23.615Z,0.90
2022-12-31T10:22:19.790Z,0.90
2022-12-31T10:25:38.906Z,0.70
2022-12-31T10:28:55.060Z,0.90
2022-12-31T10:31:56.538Z,1.02
2022-12-31T10:34:44.134Z,0.95
2022-12-31T10:37:18.257Z,16.67
2022-12-31T10:40:15.541Z,1.92
2022-12-31T10:43:22.384Z,1.02
2022-12-31T10:46:25.762Z,0.98
2022-12-31T10:49:40.856Z,0.90
2022-12-31T10:52:47.489Z,1.25
2022-12-31T10:55:35.115Z,1.33
2022-12-31T10:58:45.678Z,0.95
2022-12-31T11:01:24.290Z,1.08
2022-12-31T11:04:37.645Z,0.88
2022-12-31T11:07:58.842Z,0.90
2022-12-31T11:10:42.613Z,0.73
2022-12-31T11:14:10.508Z,1.15
2022-12-31T11:17:16.969Z,0.95
2022-12-31T11:20:27.350Z,1.10
2022-12-31T11:23:39.223Z,1.00
2022-12-31T11:26:33.503Z,1.20
2022-12-31T11:29:53.886Z,1.13
2022-12-31T11:32:44.926Z,0.93
2022-12-31T11:35:45.951Z,1.13
2022-12-31T11:38:29.969Z,1.33
2022-12-31T11:41:26.371Z,0.95
2022-12-31T11:44:18.080Z,1.00
2022-12-31T11:48:28.419Z,1.10
2022-12-31T11:51:21.533Z,1.30
2022-12-31T11:54:18.091Z,1.35
2022-12-31T11:56:56.420Z,1.50
2022-12-31T11:59:23.326Z,1.85
2022-12-31T12:02:17.308Z,2.15
2022-12-31T12:04:48.286Z,1.75
2022-12-31T12:07:17.557Z,1.60
2022-12-31T12:09:46.073Z,1.45
2022-12-31T12:12:13.163Z,1.40
2022-12-31T12:14:43.765Z,2.53
2022-12-31T12:17:31.721Z,1.85
2022-12-31T12:20:14.096Z,2.50
2022-12-31T12:22:51.883Z,2.53
2022-12-31T12:25:26.761Z,2.15
2022-12-31T12:27:54.456Z,1.50
2022-12-31T12:30:28.620Z,1.67
2022-12-31T12:32:58.547Z,1.45
2022-12-31T12:35:30.785Z,2.38
2022-12-31T12:38:16.129Z,7.25
2022-12-31T12:40:58.543Z,2.20
2022-12-31T12:43:33.264Z,1.55
2022-12-31T12:46:05.737Z,1.40
2022-12-31T12:48:45.974Z,1.60
2022-12-31T12:51:40.348Z,1.42
2022-12-31T12:55:16.276Z,1.50
2022-12-31T12:58:18.643Z,1.58
2022-12-31T13:01:19.000Z,1.42
2022-12-31T13:04:38.193Z,1.50
2022-12-31T13:07:13.259Z,1.35
2022-12-31T13:10:17.504Z,1.45
2022-12-31T13:13:23.994Z,10.18
2022-12-31T13:16:12.693Z,1.98
2022-12-31T13:19:11.441Z,1.77
2022-12-31T13:22:23.396Z,2.10
2022-12-31T13:25:30.366Z,1.50
2022-12-31T13:28:04.059Z,2.88
2022-12-31T13:30:44.335Z,1.98
2022-12-31T13:33:18.252Z,4.80
2022-12-31T13:35:53.497Z,1.70
2022-12-31T13:38:34.519Z,2.00
2022-12-31T13:41:22.636Z,2.00
2022-12-31T13:44:04.735Z,2.65
2022-12-31T13:46:53.739Z,1.83
2022-12-31T13:49:41.620Z,1.75
2022-12-31T13:52:32.082Z,1.42
2022-12-31T13:55:11.197Z,1.50
2022-12-31T13:57:55.761Z,1.67
2022-12-31T14:00:34.541Z,1.42
2022-12-31T14:03:24.942Z,1.42
2022-12-31T14:06:15.183Z,1.67
2022-12-31T14:08:41.993Z,1.52
2022-12-31T14:11:53.639Z,2.28
2022-12-31T14:14:43.966Z,1.58
2022-12-31T14:17:24.673Z,1.58
2022-12-31T14:20:39.273Z,1.55
2022-12-31T14:23:36.769Z,1.35
2022-12-31T14:26:28.384Z,2.08
2022-12-31T14:28:57.908Z,1.77
2022-12-31T14:31:49.281Z,1.70
2022-12-31T14:34:49.592Z,1.50
2022-12-31T14:37:37.174Z,1.35
2022-12-31T14:40:22.275Z,16.70
2022-12-31T14:43:16.728Z,1.85
2022-12-31T14:46:05.749Z,1.80
2022-12-31T14:49:14.742Z,2.00
2022-12-31T14:51:42.102Z,2.60
2022-12-31T14:54:37.232Z,2.47
2022-12-31T14:57:23.362Z,2.05
2022-12-31T15:00:21.211Z,2.40
2022-12-31T15:03:04.792Z,2.50
2022-12-31T15:05:38.201Z,2.10
2022-12-31T15:08:54.051Z,2.20
2022-12-31T15:11:42.208Z,2.03
2022-12-31T15:14:21.277Z,2.50
2022-12-31T15:17:17.832Z,3.42
2022-12-31T15:20:26.058Z,3.22
2022-12-31T15:22:54.623Z,4.05
2022-12-31T15:25:27.429Z,22.90
2022-12-31T15:27:57.633Z,6.78
2022-12-31T15:30:46.995Z,6.03
2022-12-31T15:33:37.519Z,4.43
2022-12-31T15:36:21.139Z,3.38
2022-12-31T15:38:49.955Z,3.92
2022-12-31T15:41:19.517Z,4.50
2022-12-31T15:44:43.120Z,3.95
2022-12-31T15:47:31.332Z,4.30
2022-12-31T15:50:05.019Z,4.28
2022-12-31T15:52:47.966Z,4.90
2022-12-31T15:55:25.732Z,3.80
2022-12-31T15:58:00.141Z,3.22
2022-12-31T16:00:46.677Z,3.40
2022-12-31T16:03:33.645Z,2.97
2022-12-31T16:06:07.991Z,3.72
2022-12-31T16:08:35.581Z,3.45
2022-12-31T16:11:07.284Z,3.58
2022-12-31T16:13:40.847Z,3.70
2022-12-31T16:16:31.359Z,3.20
2022-12-31T16:18:59.410Z,4.10
2022-12-31T16:21:35.326Z,4.45
2022-12-31T16:24:23.351Z,4.70
2022-12-31T16:26:54.715Z,5.32
2022-12-31T16:29:24.212Z,3.78
2022-12-31T16:31:53.706Z,3.40
2022-12-31T16:34:27.669Z,3.55
2022-12-31T16:37:01.524Z,3.50
2022-12-31T16:39:37.697Z,4.00
2022-12-31T16:42:27.019Z,4.18
2022-12-31T16:44:56.916Z,3.85
2022-12-31T16:47:35.902Z,4.40
2022-12-31T16:50:15.656Z,3.55
2022-12-31T16:52:47.031Z,4.03
2022-12-31T16:55:25.669Z,4.22
2022-12-31T16:57:59.238Z,4.50
2022-12-31T17:00:27.222Z,3.30
2022-12-31T17:03:25.729Z,4.00
2022-12-31T17:06:07.419Z,4.68
2022-12-31T17:08:49.203Z,5.00
2022-12-31T17:11:45.103Z,5.07
2022-12-31T17:14:16.051Z,4.28
2022-12-31T17:17:07.907Z,4.35
2022-12-31T17:19:51.478Z,5.50
2022-12-31T17:22:36.384Z,32.53
2022-12-31T17:25:07.527Z,54.97
2022-12-31T17:27:36.528Z,7.38
2022-12-31T17:30:30.131Z,6.05
2022-12-31T17:33:22.419Z,8.13
2022-12-31T17:36:13.515Z,6.03
2022-12-31T17:38:40.981Z,4.82
2022-12-31T17:41:07.784Z,5.57
2022-12-31T17:43:37.949Z,5.18
2022-12-31T17:46:16.523Z,5.03
2022-12-31T17:48:49.424Z,4.75
2022-12-31T17:51:16.215Z,5.65
2022-12-31T17:53:51.337Z,7.28
2022-12-31T17:56:19.633Z,8.32
2022-12-31T17:58:51.609Z,6.25
2022-12-31T18:01:23.111Z,7.10
2022-12-31T18:03:50.389Z,6.15
2022-12-31T18:06:19.312Z,7.15
2022-12-31T18:08:46.402Z,4.35
2022-12-31T18:11:18.768Z,5.25
2022-12-31T18:13:46.228Z,5.18
2022-12-31T18:16:13.442Z,4.68
2022-12-31T18:18:42.205Z,5.20
2022-12-31T18:21:19.535Z,5.30
2022-12-31T18:23:48.574Z,4.53
2022-12-31T18:26:22.594Z,4.97
2022-12-31T18:28:50.903Z,5.00
2022-12-31T18:31:29.913Z,5.30
2022-12-31T18:33:59.215Z,5.28
2022-12-31T18:36:29.182Z,4.95
2022-12-31T18:38:56.060Z,5.28
2022-12-31T18:41:27.599Z,5.40
2022-12-31T18:43:55.390Z,4.88
2022-12-31T18:46:25.037Z,4.50
2022-12-31T18:48:52.075Z,4.40
2022-12-31T18:51:31.312Z,4.45
2022-12-31T18:53:59.558Z,26.75
2022-12-31T18:56:26.614Z,7.43
2022-12-31T18:58:53.753Z,11.65
2022-12-31T19:01:37.101Z,5.22
2022-12-31T19:04:22.807Z,12.95
2022-12-31T19:06:51.750Z,6.25
2022-12-31T19:09:44.018Z,22.23
2022-12-31T19:12:06.094Z,6.00
2022-12-31T19:14:32.905Z,4.75
2022-12-31T19:19:26.391Z,4.40
2022-12-31T19:21:53.200Z,4.95
2022-12-31T19:24:26.592Z,4.90
2022-12-31T19:26:54.633Z,6.65
2022-12-31T19:29:25.892Z,5.80
2022-12-31T19:31:54.051Z,6.82
2022-12-31T19:34:21.414Z,10.45
2022-12-31T19:36:48.359Z,5.60
2022-12-31T19:39:19.497Z,5.45
2022-12-31T19:41:53.017Z,9.25
2022-12-31T19:44:25.653Z,18.38
2022-12-31T19:46:52.414Z,5.90
2022-12-31T19:49:19.216Z,4.93
2022-12-31T19:51:46.151Z,3.40
2022-12-31T19:54:13.573Z,3.92
2022-12-31T19:56:41.020Z,3.75
2022-12-31T19:59:10.165Z,4.15
2022-12-31T20:01:37.754Z,4.05
2022-12-31T20:04:04.944Z,3.78
2022-12-31T20:06:31.843Z,3.95
2022-12-31T20:08:58.679Z,4.40
2022-12-31T20:11:25.806Z,6.32
2022-12-31T20:13:53.948Z,4.80
2022-12-31T20:16:26.489Z,3.58
2022-12-31T20:18:53.446Z,5.43
2022-12-31T20:21:24.391Z,3.85
2022-12-31T20:23:53.778Z,4.20
2022-12-31T20:26:22.826Z,4.05
2022-12-31T20:28:50.756Z,33.38
2022-12-31T20:31:23.137Z,6.05
2022-12-31T20:33:50.115Z,4.38
2022-12-31T20:36:17.800Z,4.30
2022-12-31T20:38:45.632Z,5.55
2022-12-31T20:41:16.710Z,5.22
2022-12-31T20:43:44.876Z,4.03
2022-12-31T20:46:19.441Z,3.67
2022-12-31T20:48:48.527Z,4.63
2022-12-31T20:51:17.100Z,4.90
2022-12-31T20:54:09.900Z,4.30
2022-12-31T20:56:40.367Z,4.70
2022-12-31T20:59:09.273Z,4.10
2022-12-31T21:02:11.729Z,6.25
2022-12-31T21:04:24.379Z,4.15
2022-12-31T21:06:52.184Z,4.30
2022-12-31T21:09:18.969Z,5.38
2022-12-31T21:12:04.292Z,4.32
2022-12-31T21:14:31.210Z,4.68
2022-12-31T21:16:58.036Z,4.57
2022-12-31T21:19:24.909Z,4.65
2022-12-31T21:21:51.744Z,56.80
2022-12-31T21:24:23.638Z,7.68
2022-12-31T21:26:51.708Z,6.70
2022-12-31T21:29:18.531Z,4.50
2022-12-31T21:31:45.288Z,3.80
2022-12-31T21:34:12.117Z,5.78
2022-12-31T21:36:38.941Z,4.78
2022-12-31T21:39:05.688Z,4.82
2022-12-31T21:41:50.811Z,5.10
2022-12-31T21:44:26.024Z,4.25
2022-12-31T21:47:38.502Z,4.90
2022-12-31T21:50:07.596Z,4.90
2022-12-31T21:52:35.067Z,4.60
2022-12-31T21:55:23.398Z,5.05
2022-12-31T21:58:24.718Z,5.93
2022-12-31T22:00:57.403Z,4.35
2022-12-31T22:03:24.329Z,4.65
2022-12-31T22:05:52.976Z,4.97
2022-12-31T22:08:22.360Z,5.60
2022-12-31T22:10:52.753Z,22.30
2022-12-31T22:13:20.098Z,6.80
2022-12-31T22:15:52.166Z,7.07
2022-12-31T22:18:19.986Z,5.75
2022-12-31T22:20:47.021Z,4.95
2022-12-31T22:23:14.133Z,5.80
2022-12-31T22:25:40.932Z,4.85
2022-12-31T22:30:55.242Z,5.10
2022-12-31T22:33:22.120Z,4.68
2022-12-31T22:36:05.420Z,4.63
2022-12-31T22:38:33.229Z,4.65
2022-12-31T22:41:09.297Z,4.38
2022-12-31T22:43:39.472Z,4.32
2022-12-31T22:46:09.994Z,3.90
2022-12-31T22:48:37.769Z,5.00
2022-12-31T22:51:06.136Z,9.40
2022-12-31T22:53:33.285Z,6.47
2022-12-31T22:56:00.333Z,4.88
2022-12-31T22:58:27.584Z,4.40
2022-12-31T23:00:54.493Z,4.93
2022-12-31T23:03:21.415Z,4.28
2022-12-31T23:05:52.743Z,26.27
2022-12-31T23:08:23.545Z,64.80
2022-12-31T23:10:59.656Z,53.85
2022-12-31T23:13:59.836Z,193.93
2022-12-31T23:16:48.424Z,62.90
2022-12-31T23:19:34.917Z,58.97
2022-12-31T23:22:20.380Z,43.47
2022-12-31T23:24:47.182Z,89.95
2022-12-31T23:27:14.006Z,71.85
2022-12-31T23:29:46.595Z,56.08
2022-12-31T23:32:16.178Z,76.65
2022-12-31T23:34:45.192Z,41.95
2022-12-31T23:37:14.487Z,41.17
2022-12-31T23:39:42.342Z,72.03
2022-12-31T23:42:09.297Z,34.65
2022-12-31T23:44:36.143Z,29.83
2022-12-31T23:47:03.046Z,25.80
2022-12-31T23:49:30.116Z,35.35
2022-12-31T23:51:56.912Z,36.75
2022-12-31T23:54:23.747Z,24.83
2022-12-31T23:56:50.598Z,25.38
2022-12-31T23:59:18.379Z,26.85
